sensor_id;sensor_type;location;lat;lon;timestamp;P1;durP1;ratioP1;P2;durP2;ratioP2
48623;SDS011;34422;45.802;16.114;2023-06-10T00:00:27;12.18;;;7.13;;
48623;SDS011;34422;45.802;16.114;2023-06-10T00:02:54;11.98;;;6.30;;
48623;SDS011;34422;45.802;16.114;2023-06-10T00:05:21;10.15;;;5.68;;
48623;SDS011;34422;45.802;16.114;2023-06-10T00:07:48;10.00;;;6.47;;
48623;SDS011;34422;45.802;16.114;2023-06-10T00:10:16;8.10;;;5.38;;
48623;SDS011;34422;45.802;16.114;2023-06-10T00:12:43;8.82;;;5.88;;
48623;SDS011;34422;45.802;16.114;2023-06-10T00:15:10;8.68;;;5.30;;
48623;SDS011;34422;45.802;16.114;2023-06-10T00:17:36;8.05;;;5.47;;
48623;SDS011;34422;45.802;16.114;2023-06-10T00:20:06;8.32;;;5.05;;
48623;SDS011;34422;45.802;16.114;2023-06-10T00:22:35;9.30;;;6.03;;
48623;SDS011;34422;45.802;16.114;2023-06-10T00:25:02;7.10;;;4.55;;
48623;SDS011;34422;45.802;16.114;2023-06-10T00:27:30;11.00;;;6.22;;
48623;SDS011;34422;45.802;16.114;2023-06-10T00:30:04;9.55;;;6.18;;
48623;SDS011;34422;45.802;16.114;2023-06-10T00:32:33;8.50;;;5.82;;
48623;SDS011;34422;45.802;16.114;2023-06-10T00:35:00;8.00;;;5.78;;
48623;SDS011;34422;45.802;16.114;2023-06-10T00:37:27;12.02;;;6.05;;
48623;SDS011;34422;45.802;16.114;2023-06-10T00:39:55;9.25;;;6.57;;
48623;SDS011;34422;45.802;16.114;2023-06-10T00:42:22;12.65;;;7.05;;
48623;SDS011;34422;45.802;16.114;2023-06-10T00:44:50;9.13;;;6.13;;
48623;SDS011;34422;45.802;16.114;2023-06-10T00:47:18;7.95;;;5.78;;
48623;SDS011;34422;45.802;16.114;2023-06-10T00:49:45;10.48;;;6.53;;
48623;SDS011;34422;45.802;16.114;2023-06-10T00:52:12;9.60;;;6.80;;
48623;SDS011;34422;45.802;16.114;2023-06-10T00:54:41;8.35;;;5.93;;
48623;SDS011;34422;45.802;16.114;2023-06-10T00:57:08;11.75;;;6.72;;
48623;SDS011;34422;45.802;16.114;2023-06-10T00:59:35;7.70;;;5.65;;
48623;SDS011;34422;45.802;16.114;2023-06-10T01:02:02;8.80;;;6.03;;
48623;SDS011;34422;45.802;16.114;2023-06-10T01:04:30;9.55;;;5.90;;
48623;SDS011;34422;45.802;16.114;2023-06-10T01:07:01;8.30;;;5.85;;
48623;SDS011;34422;45.802;16.114;2023-06-10T01:09:38;9.25;;;5.43;;
48623;SDS011;34422;45.802;16.114;2023-06-10T01:14:43;9.50;;;5.90;;
48623;SDS011;34422;45.802;16.114;2023-06-10T01:17:10;7.13;;;5.47;;
48623;SDS011;34422;45.802;16.114;2023-06-10T01:19:38;8.18;;;5.13;;
48623;SDS011;34422;45.802;16.114;2023-06-10T01:22:07;13.10;;;6.07;;
48623;SDS011;34422;45.802;16.114;2023-06-10T01:24:33;10.13;;;5.50;;
48623;SDS011;34422;45.802;16.114;2023-06-10T01:27:01;7.60;;;5.22;;
48623;SDS011;34422;45.802;16.114;2023-06-10T01:29:33;8.70;;;5.38;;
48623;SDS011;34422;45.802;16.114;2023-06-10T01:32:18;11.30;;;5.68;;
48623;SDS011;34422;45.802;16.114;2023-06-10T01:34:53;8.85;;;6.22;;
48623;SDS011;34422;45.802;16.114;2023-06-10T01:37:22;8.43;;;5.60;;
48623;SDS011;34422;45.802;16.114;2023-06-10T01:39:54;10.35;;;5.95;;
48623;SDS011;34422;45.802;16.114;2023-06-10T01:42:23;11.05;;;6.28;;
48623;SDS011;34422;45.802;16.114;2023-06-10T01:44:51;9.75;;;6.13;;
48623;SDS011;34422;45.802;16.114;2023-06-10T01:47:18;11.65;;;6.43;;
48623;SDS011;34422;45.802;16.114;2023-06-10T01:49:45;9.70;;;6.95;;
48623;SDS011;34422;45.802;16.114;2023-06-10T01:52:12;11.52;;;7.03;;
48623;SDS011;34422;45.802;16.114;2023-06-10T01:54:39;12.63;;;6.43;;
48623;SDS011;34422;45.802;16.114;2023-06-10T01:57:06;9.43;;;6.85;;
48623;SDS011;34422;45.802;16.114;2023-06-10T01:59:33;10.38;;;7.00;;
48623;SDS011;34422;45.802;16.114;2023-06-10T02:01:59;11.55;;;6.57;;
48623;SDS011;34422;45.802;16.114;2023-06-10T02:04:26;11.13;;;7.28;;
48623;SDS011;34422;45.802;16.114;2023-06-10T02:06:53;9.05;;;7.00;;
48623;SDS011;34422;45.802;16.114;2023-06-10T02:09:20;8.60;;;6.28;;
48623;SDS011;34422;45.802;16.114;2023-06-10T02:11:46;10.15;;;6.32;;
48623;SDS011;34422;45.802;16.114;2023-06-10T02:14:13;9.48;;;5.65;;
48623;SDS011;34422;45.802;16.114;2023-06-10T02:16:41;10.55;;;6.78;;
48623;SDS011;34422;45.802;16.114;2023-06-10T02:19:07;11.43;;;7.40;;
48623;SDS011;34422;45.802;16.114;2023-06-10T02:21:34;11.57;;;6.90;;
48623;SDS011;34422;45.802;16.114;2023-06-10T02:24:01;9.05;;;6.13;;
48623;SDS011;34422;45.802;16.114;2023-06-10T02:26:28;9.45;;;6.95;;
48623;SDS011;34422;45.802;16.114;2023-06-10T02:28:55;10.25;;;6.40;;
48623;SDS011;34422;45.802;16.114;2023-06-10T02:31:21;11.63;;;7.45;;
48623;SDS011;34422;45.802;16.114;2023-06-10T02:33:50;9.23;;;6.70;;
48623;SDS011;34422;45.802;16.114;2023-06-10T02:36:17;8.88;;;6.10;;
48623;SDS011;34422;45.802;16.114;2023-06-10T02:38:44;14.52;;;7.05;;
48623;SDS011;34422;45.802;16.114;2023-06-10T02:41:11;9.30;;;5.93;;
48623;SDS011;34422;45.802;16.114;2023-06-10T02:43:37;8.57;;;6.50;;
48623;SDS011;34422;45.802;16.114;2023-06-10T02:46:06;10.07;;;6.40;;
48623;SDS011;34422;45.802;16.114;2023-06-10T02:48:38;9.80;;;6.43;;
48623;SDS011;34422;45.802;16.114;2023-06-10T02:51:07;11.35;;;6.75;;
48623;SDS011;34422;45.802;16.114;2023-06-10T02:53:34;14.68;;;7.57;;
48623;SDS011;34422;45.802;16.114;2023-06-10T02:56:00;10.60;;;6.90;;
48623;SDS011;34422;45.802;16.114;2023-06-10T02:58:28;11.18;;;7.05;;
48623;SDS011;34422;45.802;16.114;2023-06-10T03:00:55;12.30;;;6.55;;
48623;SDS011;34422;45.802;16.114;2023-06-10T03:03:21;11.90;;;7.30;;
48623;SDS011;34422;45.802;16.114;2023-06-10T03:05:48;11.02;;;7.18;;
48623;SDS011;34422;45.802;16.114;2023-06-10T03:08:15;8.73;;;6.40;;
48623;SDS011;34422;45.802;16.114;2023-06-10T03:10:42;9.00;;;6.72;;
48623;SDS011;34422;45.802;16.114;2023-06-10T03:13:09;10.75;;;6.75;;
48623;SDS011;34422;45.802;16.114;2023-06-10T03:15:36;9.65;;;6.68;;
48623;SDS011;34422;45.802;16.114;2023-06-10T03:18:04;11.27;;;6.82;;
48623;SDS011;34422;45.802;16.114;2023-06-10T03:20:31;12.40;;;7.97;;
48623;SDS011;34422;45.802;16.114;2023-06-10T03:22:58;8.82;;;6.57;;
48623;SDS011;34422;45.802;16.114;2023-06-10T03:25:24;13.40;;;6.80;;
48623;SDS011;34422;45.802;16.114;2023-06-10T03:27:52;12.50;;;7.68;;
48623;SDS011;34422;45.802;16.114;2023-06-10T03:30:19;10.90;;;7.38;;
48623;SDS011;34422;45.802;16.114;2023-06-10T03:32:46;13.15;;;7.93;;
48623;SDS011;34422;45.802;16.114;2023-06-10T03:35:13;11.20;;;8.18;;
48623;SDS011;34422;45.802;16.114;2023-06-10T03:37:41;8.73;;;6.50;;
48623;SDS011;34422;45.802;16.114;2023-06-10T03:40:08;11.23;;;7.53;;
48623;SDS011;34422;45.802;16.114;2023-06-10T03:42:35;12.35;;;7.10;;
48623;SDS011;34422;45.802;16.114;2023-06-10T03:45:02;9.70;;;7.30;;
48623;SDS011;34422;45.802;16.114;2023-06-10T03:47:34;10.90;;;8.23;;
48623;SDS011;34422;45.802;16.114;2023-06-10T03:50:04;10.07;;;7.70;;
48623;SDS011;34422;45.802;16.114;2023-06-10T03:52:31;12.82;;;8.15;;
48623;SDS011;34422;45.802;16.114;2023-06-10T03:54:58;12.15;;;7.80;;
48623;SDS011;34422;45.802;16.114;2023-06-10T03:57:25;12.02;;;7.13;;
48623;SDS011;34422;45.802;16.114;2023-06-10T03:59:52;7.53;;;5.75;;
48623;SDS011;34422;45.802;16.114;2023-06-10T04:02:19;8.55;;;5.10;;
48623;SDS011;34422;45.802;16.114;2023-06-10T04:04:45;8.23;;;5.90;;
48623;SDS011;34422;45.802;16.114;2023-06-10T04:07:12;9.20;;;6.07;;
48623;SDS011;34422;45.802;16.114;2023-06-10T04:09:40;13.15;;;6.95;;
48623;SDS011;34422;45.802;16.114;2023-06-10T04:12:07;8.80;;;5.82;;
48623;SDS011;34422;45.802;16.114;2023-06-10T04:14:35;9.75;;;6.68;;
48623;SDS011;34422;45.802;16.114;2023-06-10T04:17:04;11.48;;;6.38;;
48623;SDS011;34422;45.802;16.114;2023-06-10T04:19:34;9.75;;;6.57;;
48623;SDS011;34422;45.802;16.114;2023-06-10T04:22:01;9.65;;;6.63;;
48623;SDS011;34422;45.802;16.114;2023-06-10T04:24:29;8.40;;;5.78;;
48623;SDS011;34422;45.802;16.114;2023-06-10T04:26:56;8.40;;;6.07;;
48623;SDS011;34422;45.802;16.114;2023-06-10T04:29:23;10.15;;;6.05;;
48623;SDS011;34422;45.802;16.114;2023-06-10T04:31:50;10.15;;;7.20;;
48623;SDS011;34422;45.802;16.114;2023-06-10T04:34:17;12.65;;;7.68;;
48623;SDS011;34422;45.802;16.114;2023-06-10T04:36:44;10.35;;;6.68;;
48623;SDS011;34422;45.802;16.114;2023-06-10T04:39:10;10.75;;;7.68;;
48623;SDS011;34422;45.802;16.114;2023-06-10T04:41:37;12.65;;;7.05;;
48623;SDS011;34422;45.802;16.114;2023-06-10T04:44:04;9.85;;;6.65;;
48623;SDS011;34422;45.802;16.114;2023-06-10T04:46:31;8.98;;;5.93;;
48623;SDS011;34422;45.802;16.114;2023-06-10T04:48:58;10.60;;;6.90;;
48623;SDS011;34422;45.802;16.114;2023-06-10T04:51:25;9.60;;;6.70;;
48623;SDS011;34422;45.802;16.114;2023-06-10T04:53:52;9.80;;;6.80;;
48623;SDS011;34422;45.802;16.114;2023-06-10T04:56:19;12.88;;;6.43;;
48623;SDS011;34422;45.802;16.114;2023-06-10T04:58:46;10.15;;;6.93;;
48623;SDS011;34422;45.802;16.114;2023-06-10T05:01:13;8.10;;;6.03;;
48623;SDS011;34422;45.802;16.114;2023-06-10T05:03:40;9.13;;;6.72;;
48623;SDS011;34422;45.802;16.114;2023-06-10T05:06:07;9.60;;;6.57;;
48623;SDS011;34422;45.802;16.114;2023-06-10T05:08:33;8.82;;;6.32;;
48623;SDS011;34422;45.802;16.114;2023-06-10T05:11:00;8.35;;;5.90;;
48623;SDS011;34422;45.802;16.114;2023-06-10T05:13:27;10.93;;;6.53;;
48623;SDS011;34422;45.802;16.114;2023-06-10T05:15:54;8.13;;;5.97;;
48623;SDS011;34422;45.802;16.114;2023-06-10T05:18:20;8.73;;;6.05;;
48623;SDS011;34422;45.802;16.114;2023-06-10T05:20:47;10.43;;;6.25;;
48623;SDS011;34422;45.802;16.114;2023-06-10T05:23:15;10.75;;;6.28;;
48623;SDS011;34422;45.802;16.114;2023-06-10T05:25:42;8.52;;;6.30;;
48623;SDS011;34422;45.802;16.114;2023-06-10T05:28:09;13.40;;;7.03;;
48623;SDS011;34422;45.802;16.114;2023-06-10T05:30:36;12.05;;;6.18;;
48623;SDS011;34422;45.802;16.114;2023-06-10T05:33:06;10.32;;;6.57;;
48623;SDS011;34422;45.802;16.114;2023-06-10T05:35:33;9.60;;;7.03;;
48623;SDS011;34422;45.802;16.114;2023-06-10T05:37:59;11.80;;;6.90;;
48623;SDS011;34422;45.802;16.114;2023-06-10T05:40:26;14.85;;;8.57;;
48623;SDS011;34422;45.802;16.114;2023-06-10T05:42:53;9.75;;;6.28;;
48623;SDS011;34422;45.802;16.114;2023-06-10T05:45:20;9.18;;;5.93;;
48623;SDS011;34422;45.802;16.114;2023-06-10T05:47:46;9.68;;;5.97;;
48623;SDS011;34422;45.802;16.114;2023-06-10T05:50:13;9.55;;;6.25;;
48623;SDS011;34422;45.802;16.114;2023-06-10T05:52:40;10.32;;;6.97;;
48623;SDS011;34422;45.802;16.114;2023-06-10T05:55:07;10.52;;;6.03;;
48623;SDS011;34422;45.802;16.114;2023-06-10T05:57:34;10.50;;;6.68;;
48623;SDS011;34422;45.802;16.114;2023-06-10T06:00:01;11.88;;;6.15;;
48623;SDS011;34422;45.802;16.114;2023-06-10T06:02:28;13.50;;;6.60;;
48623;SDS011;34422;45.802;16.114;2023-06-10T06:04:54;12.02;;;5.88;;
48623;SDS011;34422;45.802;16.114;2023-06-10T06:07:21;10.70;;;6.45;;
48623;SDS011;34422;45.802;16.114;2023-06-10T06:09:48;11.50;;;6.63;;
48623;SDS011;34422;45.802;16.114;2023-06-10T06:12:15;13.10;;;6.28;;
48623;SDS011;34422;45.802;16.114;2023-06-10T06:14:42;13.82;;;6.00;;
48623;SDS011;34422;45.802;16.114;2023-06-10T06:17:08;11.45;;;6.75;;
48623;SDS011;34422;45.802;16.114;2023-06-10T06:19:35;12.50;;;6.05;;
48623;SDS011;34422;45.802;16.114;2023-06-10T06:22:02;7.78;;;5.95;;
48623;SDS011;34422;45.802;16.114;2023-06-10T06:24:29;8.20;;;5.72;;
48623;SDS011;34422;45.802;16.114;2023-06-10T06:26:56;7.40;;;4.90;;
48623;SDS011;34422;45.802;16.114;2023-06-10T06:29:23;11.32;;;6.18;;
48623;SDS011;34422;45.802;16.114;2023-06-10T06:31:49;6.20;;;4.10;;
48623;SDS011;34422;45.802;16.114;2023-06-10T06:34:16;7.13;;;4.30;;
48623;SDS011;34422;45.802;16.114;2023-06-10T06:36:43;7.15;;;4.38;;
48623;SDS011;34422;45.802;16.114;2023-06-10T06:39:10;6.82;;;4.88;;
48623;SDS011;34422;45.802;16.114;2023-06-10T06:41:37;8.43;;;4.93;;
48623;SDS011;34422;45.802;16.114;2023-06-10T06:44:03;6.60;;;4.60;;
48623;SDS011;34422;45.802;16.114;2023-06-10T06:46:30;6.25;;;4.13;;
48623;SDS011;34422;45.802;16.114;2023-06-10T06:48:57;6.50;;;4.38;;
48623;SDS011;34422;45.802;16.114;2023-06-10T06:51:24;5.43;;;3.60;;
48623;SDS011;34422;45.802;16.114;2023-06-10T06:53:50;9.45;;;3.78;;
48623;SDS011;34422;45.802;16.114;2023-06-10T06:56:17;7.95;;;3.90;;
48623;SDS011;34422;45.802;16.114;2023-06-10T06:58:44;6.95;;;4.28;;
48623;SDS011;34422;45.802;16.114;2023-06-10T07:01:11;7.80;;;4.10;;
48623;SDS011;34422;45.802;16.114;2023-06-10T07:03:38;7.43;;;3.90;;
48623;SDS011;34422;45.802;16.114;2023-06-10T07:06:05;9.70;;;4.38;;
48623;SDS011;34422;45.802;16.114;2023-06-10T07:08:32;8.70;;;4.78;;
48623;SDS011;34422;45.802;16.114;2023-06-10T07:10:59;10.10;;;5.05;;
48623;SDS011;34422;45.802;16.114;2023-06-10T07:13:25;5.55;;;3.60;;
48623;SDS011;34422;45.802;16.114;2023-06-10T07:15:52;6.32;;;3.60;;
48623;SDS011;34422;45.802;16.114;2023-06-10T07:18:19;7.05;;;4.20;;
48623;SDS011;34422;45.802;16.114;2023-06-10T07:20:46;6.10;;;3.70;;
48623;SDS011;34422;45.802;16.114;2023-06-10T07:23:12;5.70;;;3.55;;
48623;SDS011;34422;45.802;16.114;2023-06-10T07:25:40;8.00;;;3.78;;
48623;SDS011;34422;45.802;16.114;2023-06-10T07:28:07;6.47;;;3.55;;
48623;SDS011;34422;45.802;16.114;2023-06-10T07:30:34;9.50;;;4.03;;
48623;SDS011;34422;45.802;16.114;2023-06-10T07:33:01;5.70;;;3.63;;
48623;SDS011;34422;45.802;16.114;2023-06-10T07:35:28;5.70;;;3.38;;
48623;SDS011;34422;45.802;16.114;2023-06-10T07:37:55;6.03;;;3.90;;
48623;SDS011;34422;45.802;16.114;2023-06-10T07:40:22;6.50;;;4.30;;
48623;SDS011;34422;45.802;16.114;2023-06-10T07:42:48;6.10;;;3.80;;
48623;SDS011;34422;45.802;16.114;2023-06-10T07:45:15;6.60;;;3.75;;
48623;SDS011;34422;45.802;16.114;2023-06-10T07:47:42;6.07;;;3.30;;
48623;SDS011;34422;45.802;16.114;2023-06-10T07:50:09;6.30;;;3.38;;
48623;SDS011;34422;45.802;16.114;2023-06-10T07:52:36;7.00;;;4.20;;
48623;SDS011;34422;45.802;16.114;2023-06-10T07:55:04;7.65;;;3.55;;
48623;SDS011;34422;45.802;16.114;2023-06-10T07:57:31;5.95;;;3.20;;
48623;SDS011;34422;45.802;16.114;2023-06-10T08:00:01;6.47;;;3.78;;
48623;SDS011;34422;45.802;16.114;2023-06-10T08:02:30;7.05;;;3.65;;
48623;SDS011;34422;45.802;16.114;2023-06-10T08:04:57;7.60;;;3.75;;
48623;SDS011;34422;45.802;16.114;2023-06-10T08:07:24;7.10;;;3.50;;
48623;SDS011;34422;45.802;16.114;2023-06-10T08:09:51;4.82;;;2.63;;
48623;SDS011;34422;45.802;16.114;2023-06-10T08:12:18;5.13;;;3.40;;
48623;SDS011;34422;45.802;16.114;2023-06-10T08:14:45;4.72;;;2.80;;
48623;SDS011;34422;45.802;16.114;2023-06-10T08:17:12;7.93;;;3.45;;
48623;SDS011;34422;45.802;16.114;2023-06-10T08:19:39;5.65;;;3.40;;
48623;SDS011;34422;45.802;16.114;2023-06-10T08:22:05;6.93;;;3.35;;
48623;SDS011;34422;45.802;16.114;2023-06-10T08:24:32;10.15;;;3.10;;
48623;SDS011;34422;45.802;16.114;2023-06-10T08:26:59;8.07;;;5.10;;
48623;SDS011;34422;45.802;16.114;2023-06-10T08:29:26;4.93;;;2.97;;
48623;SDS011;34422;45.802;16.114;2023-06-10T08:31:53;6.63;;;3.20;;
48623;SDS011;34422;45.802;16.114;2023-06-10T08:34:19;5.55;;;3.10;;
48623;SDS011;34422;45.802;16.114;2023-06-10T08:36:46;5.18;;;2.92;;
48623;SDS011;34422;45.802;16.114;2023-06-10T08:39:13;4.63;;;2.72;;
48623;SDS011;34422;45.802;16.114;2023-06-10T08:41:42;5.28;;;2.60;;
48623;SDS011;34422;45.802;16.114;2023-06-10T08:44:15;5.00;;;2.88;;
48623;SDS011;34422;45.802;16.114;2023-06-10T08:46:47;6.80;;;3.40;;
48623;SDS011;34422;45.802;16.114;2023-06-10T08:49:17;5.57;;;3.40;;
48623;SDS011;34422;45.802;16.114;2023-06-10T08:51:48;5.43;;;3.60;;
48623;SDS011;34422;45.802;16.114;2023-06-10T08:54:17;7.15;;;3.33;;
48623;SDS011;34422;45.802;16.114;2023-06-10T08:56:49;6.30;;;3.00;;
48623;SDS011;34422;45.802;16.114;2023-06-10T08:59:17;9.73;;;3.38;;
48623;SDS011;34422;45.802;16.114;2023-06-10T09:01:44;9.38;;;4.10;;
48623;SDS011;34422;45.802;16.114;2023-06-10T09:04:12;7.07;;;4.50;;
48623;SDS011;34422;45.802;16.114;2023-06-10T09:06:40;6.63;;;4.60;;
48623;SDS011;34422;45.802;16.114;2023-06-10T09:09:07;22.85;;;16.90;;
48623;SDS011;34422;45.802;16.114;2023-06-10T09:11:34;8.48;;;4.90;;
48623;SDS011;34422;45.802;16.114;2023-06-10T09:14:01;5.55;;;3.30;;
48623;SDS011;34422;45.802;16.114;2023-06-10T09:16:28;5.25;;;3.03;;
48623;SDS011;34422;45.802;16.114;2023-06-10T09:18:55;5.60;;;3.53;;
48623;SDS011;34422;45.802;16.114;2023-06-10T09:21:22;8.98;;;3.60;;
48623;SDS011;34422;45.802;16.114;2023-06-10T09:23:49;6.60;;;3.22;;
48623;SDS011;34422;45.802;16.114;2023-06-10T09:26:17;6.18;;;3.78;;
48623;SDS011;34422;45.802;16.114;2023-06-10T09:28:45;5.30;;;3.88;;
48623;SDS011;34422;45.802;16.114;2023-06-10T09:31:14;8.75;;;4.55;;
48623;SDS011;34422;45.802;16.114;2023-06-10T09:33:44;5.32;;;3.20;;
48623;SDS011;34422;45.802;16.114;2023-06-10T09:36:11;6.15;;;3.45;;
48623;SDS011;34422;45.802;16.114;2023-06-10T09:38:49;5.97;;;3.75;;
48623;SDS011;34422;45.802;16.114;2023-06-10T09:41:16;8.38;;;4.88;;
48623;SDS011;34422;45.802;16.114;2023-06-10T09:43:43;9.05;;;5.25;;
48623;SDS011;34422;45.802;16.114;2023-06-10T09:46:18;6.47;;;3.78;;
48623;SDS011;34422;45.802;16.114;2023-06-10T09:48:47;6.78;;;3.88;;
48623;SDS011;34422;45.802;16.114;2023-06-10T09:51:14;5.60;;;3.65;;
48623;SDS011;34422;45.802;16.114;2023-06-10T09:53:47;8.60;;;4.18;;
48623;SDS011;34422;45.802;16.114;2023-06-10T09:56:15;7.93;;;4.15;;
48623;SDS011;34422;45.802;16.114;2023-06-10T09:58:42;5.70;;;4.13;;
48623;SDS011;34422;45.802;16.114;2023-06-10T10:01:10;7.93;;;3.97;;
48623;SDS011;34422;45.802;16.114;2023-06-10T10:03:45;6.22;;;4.38;;
48623;SDS011;34422;45.802;16.114;2023-06-10T10:06:14;5.93;;;3.80;;
48623;SDS011;34422;45.802;16.114;2023-06-10T10:08:41;5.82;;;3.65;;
48623;SDS011;34422;45.802;16.114;2023-06-10T10:11:10;5.45;;;3.80;;
48623;SDS011;34422;45.802;16.114;2023-06-10T10:13:37;12.52;;;4.53;;
48623;SDS011;34422;45.802;16.114;2023-06-10T10:16:11;5.80;;;4.00;;
48623;SDS011;34422;45.802;16.114;2023-06-10T10:18:46;6.30;;;4.07;;
48623;SDS011;34422;45.802;16.114;2023-06-10T10:21:24;7.15;;;5.18;;
48623;SDS011;34422;45.802;16.114;2023-06-10T10:24:00;9.05;;;5.78;;
48623;SDS011;34422;45.802;16.114;2023-06-10T10:26:31;7.55;;;5.28;;
48623;SDS011;34422;45.802;16.114;2023-06-10T10:29:41;7.10;;;5.00;;
48623;SDS011;34422;45.802;16.114;2023-06-10T10:31:53;7.85;;;5.43;;
48623;SDS011;34422;45.802;16.114;2023-06-10T10:37:11;10.02;;;6.60;;
48623;SDS011;34422;45.802;16.114;2023-06-10T10:39:38;8.80;;;6.50;;
48623;SDS011;34422;45.802;16.114;2023-06-10T10:42:05;7.95;;;6.15;;
48623;SDS011;34422;45.802;16.114;2023-06-10T10:44:37;9.07;;;6.35;;
48623;SDS011;34422;45.802;16.114;2023-06-10T10:47:05;9.48;;;6.55;;
48623;SDS011;34422;45.802;16.114;2023-06-10T10:49:35;10.35;;;6.82;;
48623;SDS011;34422;45.802;16.114;2023-06-10T10:52:03;9.02;;;6.63;;
48623;SDS011;34422;45.802;16.114;2023-06-10T10:54:33;8.90;;;6.68;;
48623;SDS011;34422;45.802;16.114;2023-06-10T10:57:12;7.82;;;6.40;;
48623;SDS011;34422;45.802;16.114;2023-06-10T10:59:46;8.82;;;6.47;;
48623;SDS011;34422;45.802;16.114;2023-06-10T11:02:19;9.65;;;5.65;;
48623;SDS011;34422;45.802;16.114;2023-06-10T11:05:10;8.32;;;6.00;;
48623;SDS011;34422;45.802;16.114;2023-06-10T11:07:40;8.60;;;6.35;;
48623;SDS011;34422;45.802;16.114;2023-06-10T11:10:11;7.45;;;5.65;;
48623;SDS011;34422;45.802;16.114;2023-06-10T11:15:12;9.25;;;6.00;;
48623;SDS011;34422;45.802;16.114;2023-06-10T11:23:26;8.00;;;5.90;;
48623;SDS011;34422;45.802;16.114;2023-06-10T11:26:18;7.53;;;5.93;;
48623;SDS011;34422;45.802;16.114;2023-06-10T11:31:21;7.97;;;6.00;;
48623;SDS011;34422;45.802;16.114;2023-06-10T11:36:26;9.13;;;5.82;;
48623;SDS011;34422;45.802;16.114;2023-06-10T11:38:57;8.52;;;5.88;;
48623;SDS011;34422;45.802;16.114;2023-06-10T11:41:26;10.15;;;6.40;;
48623;SDS011;34422;45.802;16.114;2023-06-10T11:43:59;10.05;;;5.72;;
48623;SDS011;34422;45.802;16.114;2023-06-10T11:46:28;6.72;;;4.45;;
48623;SDS011;34422;45.802;16.114;2023-06-10T11:48:56;8.23;;;5.65;;
48623;SDS011;34422;45.802;16.114;2023-06-10T11:51:31;6.78;;;4.78;;
48623;SDS011;34422;45.802;16.114;2023-06-10T11:54:02;7.80;;;5.00;;
48623;SDS011;34422;45.802;16.114;2023-06-10T11:56:30;6.75;;;4.95;;
48623;SDS011;34422;45.802;16.114;2023-06-10T11:58:59;6.57;;;4.55;;
48623;SDS011;34422;45.802;16.114;2023-06-10T12:01:31;6.65;;;4.68;;
48623;SDS011;34422;45.802;16.114;2023-06-10T12:04:00;7.30;;;5.00;;
48623;SDS011;34422;45.802;16.114;2023-06-10T12:09:18;7.55;;;4.75;;
48623;SDS011;34422;45.802;16.114;2023-06-10T12:11:59;7.13;;;4.85;;
48623;SDS011;34422;45.802;16.114;2023-06-10T12:17:21;7.43;;;4.60;;
48623;SDS011;34422;45.802;16.114;2023-06-10T12:19:49;6.53;;;4.15;;
48623;SDS011;34422;45.802;16.114;2023-06-10T12:22:17;9.93;;;5.20;;
48623;SDS011;34422;45.802;16.114;2023-06-10T12:24:56;10.50;;;5.22;;
48623;SDS011;34422;45.802;16.114;2023-06-10T12:27:26;6.68;;;4.70;;
48623;SDS011;34422;45.802;16.114;2023-06-10T12:29:54;6.78;;;4.88;;
48623;SDS011;34422;45.802;16.114;2023-06-10T12:32:22;8.27;;;4.68;;
48623;SDS011;34422;45.802;16.114;2023-06-10T12:35:04;6.25;;;3.92;;
48623;SDS011;34422;45.802;16.114;2023-06-10T12:37:32;6.95;;;4.18;;
48623;SDS011;34422;45.802;16.114;2023-06-10T12:40:01;6.70;;;4.05;;
48623;SDS011;34422;45.802;16.114;2023-06-10T12:42:29;5.75;;;4.47;;
48623;SDS011;34422;45.802;16.114;2023-06-10T12:44:57;9.63;;;4.70;;
48623;SDS011;34422;45.802;16.114;2023-06-10T12:47:30;7.82;;;4.85;;
48623;SDS011;34422;45.802;16.114;2023-06-10T12:50:01;7.00;;;5.30;;
48623;SDS011;34422;45.802;16.114;2023-06-10T12:52:29;6.47;;;4.65;;
48623;SDS011;34422;45.802;16.114;2023-06-10T12:54:56;7.65;;;4.40;;
48623;SDS011;34422;45.802;16.114;2023-06-10T12:57:23;8.15;;;5.10;;
48623;SDS011;34422;45.802;16.114;2023-06-10T12:59:50;7.53;;;4.70;;
48623;SDS011;34422;45.802;16.114;2023-06-10T13:02:19;8.18;;;5.43;;
48623;SDS011;34422;45.802;16.114;2023-06-10T13:04:46;7.22;;;5.03;;
48623;SDS011;34422;45.802;16.114;2023-06-10T13:07:14;5.72;;;4.30;;
48623;SDS011;34422;45.802;16.114;2023-06-10T13:09:41;5.70;;;4.25;;
48623;SDS011;34422;45.802;16.114;2023-06-10T13:12:09;9.55;;;6.40;;
48623;SDS011;34422;45.802;16.114;2023-06-10T13:14:37;6.97;;;4.63;;
48623;SDS011;34422;45.802;16.114;2023-06-10T13:17:04;7.57;;;4.63;;
48623;SDS011;34422;45.802;16.114;2023-06-10T13:19:33;7.53;;;4.57;;
48623;SDS011;34422;45.802;16.114;2023-06-10T13:21:59;12.75;;;6.55;;
48623;SDS011;34422;45.802;16.114;2023-06-10T13:24:27;10.05;;;6.53;;
48623;SDS011;34422;45.802;16.114;2023-06-10T13:26:54;7.25;;;5.50;;
48623;SDS011;34422;45.802;16.114;2023-06-10T13:29:22;6.18;;;4.63;;
48623;SDS011;34422;45.802;16.114;2023-06-10T13:31:49;9.50;;;6.80;;
48623;SDS011;34422;45.802;16.114;2023-06-10T13:34:16;7.45;;;4.82;;
48623;SDS011;34422;45.802;16.114;2023-06-10T13:36:43;6.90;;;4.95;;
48623;SDS011;34422;45.802;16.114;2023-06-10T13:39:10;7.72;;;5.30;;
48623;SDS011;34422;45.802;16.114;2023-06-10T13:41:37;6.63;;;4.90;;
48623;SDS011;34422;45.802;16.114;2023-06-10T13:44:03;7.93;;;4.45;;
48623;SDS011;34422;45.802;16.114;2023-06-10T13:46:30;6.68;;;4.70;;
48623;SDS011;34422;45.802;16.114;2023-06-10T13:48:57;6.20;;;4.45;;
48623;SDS011;34422;45.802;16.114;2023-06-10T13:51:24;9.13;;;5.22;;
48623;SDS011;34422;45.802;16.114;2023-06-10T13:53:51;5.65;;;4.45;;
48623;SDS011;34422;45.802;16.114;2023-06-10T13:56:18;6.25;;;4.30;;
48623;SDS011;34422;45.802;16.114;2023-06-10T13:58:45;6.80;;;5.00;;
48623;SDS011;34422;45.802;16.114;2023-06-10T14:01:12;6.72;;;4.53;;
48623;SDS011;34422;45.802;16.114;2023-06-10T14:03:39;6.65;;;4.60;;
48623;SDS011;34422;45.802;16.114;2023-06-10T14:06:05;6.80;;;4.95;;
48623;SDS011;34422;45.802;16.114;2023-06-10T14:08:32;7.70;;;5.00;;
48623;SDS011;34422;45.802;16.114;2023-06-10T14:10:59;7.60;;;5.43;;
48623;SDS011;34422;45.802;16.114;2023-06-10T14:13:26;8.63;;;5.72;;
48623;SDS011;34422;45.802;16.114;2023-06-10T14:15:53;8.32;;;5.47;;
48623;SDS011;34422;45.802;16.114;2023-06-10T14:18:19;7.40;;;5.50;;
48623;SDS011;34422;45.802;16.114;2023-06-10T14:20:46;13.68;;;7.82;;
48623;SDS011;34422;45.802;16.114;2023-06-10T14:23:13;7.10;;;5.07;;
48623;SDS011;34422;45.802;16.114;2023-06-10T14:25:40;8.57;;;5.20;;
48623;SDS011;34422;45.802;16.114;2023-06-10T14:28:06;7.50;;;5.45;;
48623;SDS011;34422;45.802;16.114;2023-06-10T14:30:33;8.45;;;5.25;;
48623;SDS011;34422;45.802;16.114;2023-06-10T14:33:00;7.20;;;4.97;;
48623;SDS011;34422;45.802;16.114;2023-06-10T14:35:27;7.78;;;4.78;;
48623;SDS011;34422;45.802;16.114;2023-06-10T14:37:54;5.50;;;4.18;;
48623;SDS011;34422;45.802;16.114;2023-06-10T14:40:20;7.00;;;4.10;;
48623;SDS011;34422;45.802;16.114;2023-06-10T14:42:52;6.88;;;4.03;;
48623;SDS011;34422;45.802;16.114;2023-06-10T14:45:19;6.32;;;3.72;;
48623;SDS011;34422;45.802;16.114;2023-06-10T14:47:46;5.63;;;4.10;;
48623;SDS011;34422;45.802;16.114;2023-06-10T14:50:13;6.97;;;4.22;;
48623;SDS011;34422;45.802;16.114;2023-06-10T14:52:41;5.13;;;3.60;;
48623;SDS011;34422;45.802;16.114;2023-06-10T14:55:07;7.75;;;5.15;;
48623;SDS011;34422;45.802;16.114;2023-06-10T14:57:34;7.38;;;5.05;;
48623;SDS011;34422;45.802;16.114;2023-06-10T15:00:02;10.52;;;6.07;;